Time;durP1;ratioP1;P1;durP2;ratioP2;P2;SDS_P1;SDS_P2;PMS_P1;PMS_P2;Temp;Humidity;BMP_temperature;BMP_pressure;BME280_temperature;BME280_humidity;BME280_pressure;Samples;Min_cycle;Max_cycle;Signal;HPM_P1;HPM_P2
2022/07/17 00:00:54;;;;;;;4.37;2.43;;;14.80;1.00;;;;;;6282194;28;20315;-55
2022/07/17 00:03:57;;;;;;;2.50;2.30;;;14.80;1.00;;;;;;6275093;28;20779;-53
2022/07/17 00:07:00;;;;;;;6.23;2.80;;;14.80;1.00;;;;;;6291937;28;21233;-54
2022/07/17 00:10:04;;;;;;;2.37;2.27;;;14.80;1.00;;;;;;6271603;28;20241;-53
2022/07/17 00:13:10;;;;;;;6.97;2.50;;;14.70;1.00;;;;;;6282477;28;20241;-54
2022/07/17 00:16:13;;;;;;;4.63;2.33;;;14.70;1.00;;;;;;6275251;28;20232;-52
2022/07/17 00:19:16;;;;;;;5.93;2.57;;;14.70;1.00;;;;;;6281147;28;20240;-53
2022/07/17 00:22:20;;;;;;;5.40;2.50;;;14.60;1.00;;;;;;6276246;28;20569;-53
2022/07/17 00:25:23;;;;;;;3.73;2.70;;;14.60;1.00;;;;;;6255540;28;20955;-52
2022/07/17 00:28:28;;;;;;;4.00;2.63;;;14.50;1.00;;;;;;6258147;28;20302;-53
2022/07/17 00:31:31;;;;;;;4.80;2.83;;;14.50;1.00;;;;;;6257768;28;20321;-53
2022/07/17 00:34:34;;;;;;;3.10;2.30;;;14.50;1.00;;;;;;6283255;28;20236;-52
2022/07/17 00:37:40;;;;;;;3.83;2.80;;;14.40;1.00;;;;;;6289506;28;20257;-53
2022/07/17 00:40:44;;;;;;;2.77;2.43;;;14.30;1.00;;;;;;6279947;28;20282;-53
2022/07/17 00:43:48;;;;;;;5.93;2.87;;;14.30;1.00;;;;;;6261165;28;20260;-53
2022/07/17 00:46:51;;;;;;;5.90;2.70;;;14.30;1.00;;;;;;6257563;28;20801;-53
2022/07/17 00:49:54;;;;;;;3.40;2.70;;;14.30;1.00;;;;;;6281828;28;20323;-54
2022/07/17 00:52:57;;;;;;;4.80;2.77;;;14.20;1.00;;;;;;6262431;28;20409;-53
2022/07/17 00:56:02;;;;;;;2.70;2.57;;;14.20;1.00;;;;;;6257636;28;20476;-52
2022/07/17 00:59:07;;;;;;;2.87;2.67;;;14.10;1.00;;;;;;6267703;28;20892;-53
2022/07/17 01:02:13;;;;;;;2.97;2.50;;;14.10;1.00;;;;;;6266829;28;20296;-53
2022/07/17 01:05:17;;;;;;;6.20;2.70;;;14.10;1.00;;;;;;6275544;28;20312;-53
2022/07/17 01:08:23;;;;;;;4.47;2.67;;;14.10;1.00;;;;;;6281359;28;20237;-54
2022/07/17 01:11:25;;;;;;;3.60;2.50;;;14.10;1.00;;;;;;6263618;28;20516;-52
2022/07/17 01:14:30;;;;;;;3.83;2.87;;;14.10;1.00;;;;;;6262084;28;20929;-53
2022/07/17 01:17:33;;;;;;;3.37;2.30;;;14.00;1.00;;;;;;6260006;28;20749;-53
2022/07/17 01:20:38;;;;;;;4.70;2.40;;;14.00;1.00;;;;;;6262122;28;20472;-54
2022/07/17 01:23:43;;;;;;;6.87;3.30;;;14.00;1.00;;;;;;6259767;28;20280;-53
2022/07/17 01:26:47;;;;;;;3.00;2.80;;;13.90;1.00;;;;;;6261176;28;20843;-55
2022/07/17 01:29:50;;;;;;;6.17;2.73;;;13.90;1.00;;;;;;6260963;28;20324;-54
2022/07/17 01:32:53;;;;;;;5.00;2.70;;;13.90;1.00;;;;;;6270657;28;20394;-53
2022/07/17 01:35:57;;;;;;;3.37;3.00;;;13.80;1.00;;;;;;6309686;28;20239;-54
2022/07/17 01:39:01;;;;;;;3.90;2.53;;;13.80;1.00;;;;;;6272021;28;20411;-54
2022/07/17 01:42:04;;;;;;;4.00;2.53;;;13.80;1.00;;;;;;6285923;28;20697;-53
2022/07/17 01:45:08;;;;;;;3.63;2.90;;;13.80;1.00;;;;;;6286848;28;20617;-54
2022/07/17 01:48:11;;;;;;;3.37;2.40;;;13.70;1.00;;;;;;6261971;28;20764;-56
2022/07/17 01:51:14;;;;;;;3.43;2.67;;;13.70;1.00;;;;;;6261159;28;20365;-54
2022/07/17 01:54:18;;;;;;;3.40;2.70;;;13.70;1.00;;;;;;6257242;28;20602;-53
2022/07/17 01:57:22;;;;;;;2.83;2.57;;;13.60;1.00;;;;;;6260715;28;20378;-53
2022/07/17 02:00:25;;;;;;;5.33;2.70;;;13.60;1.00;;;;;;6261942;28;20242;-53
2022/07/17 02:03:28;;;;;;;3.13;2.90;;;13.60;1.00;;;;;;6280813;28;20650;-56
2022/07/17 02:06:31;;;;;;;4.73;3.10;;;13.50;1.00;;;;;;6304975;28;20470;-50
2022/07/17 02:09:36;;;;;;;6.17;3.00;;;13.50;1.00;;;;;;6278648;28;20240;-56
2022/07/17 02:12:39;;;;;;;5.13;2.77;;;13.40;1.00;;;;;;6284432;28;20674;-53
2022/07/17 02:15:42;;;;;;;6.23;2.47;;;13.40;1.00;;;;;;6264446;28;20613;-54
2022/07/17 02:18:45;;;;;;;6.13;2.70;;;13.40;1.00;;;;;;6259635;28;20659;-53
2022/07/17 02:21:48;;;;;;;2.93;2.73;;;13.40;1.00;;;;;;6260659;28;20743;-54
2022/07/17 02:24:52;;;;;;;3.83;2.70;;;13.40;1.00;;;;;;6257921;28;20631;-54
2022/07/17 02:27:55;;;;;;;4.57;2.87;;;13.30;1.00;;;;;;6260598;28;20716;-54
2022/07/17 02:30:58;;;;;;;5.77;2.63;;;13.20;1.00;;;;;;6260453;28;20876;-55
2022/07/17 02:34:01;;;;;;;4.43;3.17;;;13.20;1.00;;;;;;6274198;28;20240;-56
2022/07/17 02:37:04;;;;;;;3.77;2.70;;;13.20;1.00;;;;;;6287624;28;20236;-54
2022/07/17 02:40:10;;;;;;;6.10;3.03;;;13.20;1.00;;;;;;6263862;28;20236;-53
2022/07/17 02:43:13;;;;;;;4.50;2.77;;;13.10;1.00;;;;;;6260240;28;20367;-54
2022/07/17 02:46:16;;;;;;;3.53;2.73;;;13.10;1.00;;;;;;6259471;28;20305;-54
2022/07/17 02:49:19;;;;;;;3.73;2.80;;;13.10;1.00;;;;;;6257696;28;20363;-54
2022/07/17 02:52:22;;;;;;;3.03;2.67;;;13.00;1.00;;;;;;6257270;28;20372;-54
2022/07/17 02:55:27;;;;;;;3.47;2.70;;;13.00;1.00;;;;;;6294054;28;20251;-53
2022/07/17 02:58:30;;;;;;;5.43;2.97;;;13.00;1.00;;;;;;6278242;28;20249;-54
2022/07/17 03:01:33;;;;;;;3.33;3.10;;;12.90;1.00;;;;;;6284015;28;20391;-53
2022/07/17 03:04:36;;;;;;;3.63;2.77;;;12.90;1.00;;;;;;6285494;28;20247;-54
2022/07/17 03:07:39;;;;;;;3.50;3.20;;;12.90;1.00;;;;;;6289916;28;20610;-53
2022/07/17 03:10:43;;;;;;;6.70;3.10;;;12.80;1.00;;;;;;6280197;28;20241;-53
2022/07/17 03:13:46;;;;;;;2.90;2.80;;;12.80;1.00;;;;;;6282532;28;20887;-53
2022/07/17 03:16:49;;;;;;;4.17;2.87;;;12.80;1.00;;;;;;6283595;28;20328;-54
2022/07/17 03:19:52;;;;;;;5.40;3.27;;;12.80;1.00;;;;;;6279544;28;20237;-52
2022/07/17 03:22:55;;;;;;;2.83;2.63;;;12.80;1.00;;;;;;6255863;28;20866;-54
2022/07/17 03:25:59;;;;;;;3.07;2.87;;;12.80;1.00;;;;;;6258823;28;20229;-54
2022/07/17 03:29:02;;;;;;;5.50;3.00;;;12.70;1.00;;;;;;6257596;28;20263;-54
2022/07/17 03:32:06;;;;;;;3.47;2.70;;;12.70;1.00;;;;;;6249576;28;20612;-53
2022/07/17 03:35:09;;;;;;;5.87;3.30;;;12.70;1.00;;;;;;6286641;28;20233;-53
2022/07/17 03:38:12;;;;;;;4.47;3.17;;;12.70;1.00;;;;;;6280115;28;20340;-54
2022/07/17 03:41:16;;;;;;;7.17;2.90;;;12.70;1.00;;;;;;6286788;28;20247;-53
2022/07/17 03:44:19;;;;;;;6.53;3.27;;;12.70;1.00;;;;;;6282443;28;20239;-53
2022/07/17 03:47:22;;;;;;;3.43;2.80;;;12.70;1.00;;;;;;6284596;28;20383;-54
2022/07/17 03:50:25;;;;;;;4.63;3.50;;;12.70;1.00;;;;;;6280229;28;20233;-55
2022/07/17 03:53:28;;;;;;;8.13;3.57;;;12.70;1.00;;;;;;6289510;28;20727;-53
2022/07/17 03:56:32;;;;;;;8.20;3.00;;;12.70;1.00;;;;;;6285507;28;20225;-53
2022/07/17 03:59:35;;;;;;;5.03;2.83;;;12.80;1.00;;;;;;6280415;28;20237;-54
2022/07/17 04:02:38;;;;;;;4.67;3.00;;;12.80;1.00;;;;;;6285530;28;20246;-54
2022/07/17 04:05:41;;;;;;;3.10;2.80;;;12.80;1.00;;;;;;6283243;28;20488;-54
2022/07/17 04:08:44;;;;;;;6.50;3.20;;;12.80;1.00;;;;;;6273605;28;20320;-54
2022/07/17 04:11:48;;;;;;;7.77;3.37;;;12.80;1.00;;;;;;6286979;28;20242;-54
2022/07/17 04:14:51;;;;;;;3.07;2.87;;;12.90;1.00;;;;;;6285088;28;20233;-53
2022/07/17 04:17:54;;;;;;;4.77;3.07;;;12.90;1.00;;;;;;6282787;28;20698;-53
2022/07/17 04:20:58;;;;;;;6.80;3.73;;;12.90;1.00;;;;;;6291774;28;20240;-52
2022/07/17 04:24:01;;;;;;;5.73;2.57;;;13.00;1.00;;;;;;6270944;28;20233;-54
2022/07/17 04:27:06;;;;;;;4.53;2.87;;;13.00;1.00;;;;;;6286566;28;20654;-53
2022/07/17 04:30:10;;;;;;;5.93;2.93;;;13.10;1.00;;;;;;6260360;28;20253;-53
2022/07/17 04:33:13;;;;;;;5.97;2.90;;;13.10;1.00;;;;;;6254834;28;20225;-52
2022/07/17 04:36:16;;;;;;;3.07;2.80;;;13.10;1.00;;;;;;6285436;28;20237;-53
2022/07/17 04:39:19;;;;;;;3.43;2.90;;;13.20;1.00;;;;;;6279057;28;20306;-52
2022/07/17 04:42:23;;;;;;;5.47;3.30;;;13.20;1.00;;;;;;6289773;28;20304;-53
2022/07/17 04:45:26;;;;;;;6.20;3.27;;;13.30;1.00;;;;;;6289190;28;20257;-54
2022/07/17 04:48:29;;;;;;;4.60;2.93;;;13.40;1.00;;;;;;6285431;28;20605;-53
2022/07/17 04:51:32;;;;;;;7.57;3.10;;;13.50;1.00;;;;;;6287730;28;20320;-54
2022/07/17 04:54:35;;;;;;;7.00;3.37;;;13.60;1.00;;;;;;6287418;28;20833;-55
2022/07/17 04:57:39;;;;;;;5.50;2.70;;;13.60;1.00;;;;;;6281353;28;20284;-55
2022/07/17 05:00:42;;;;;;;3.40;3.20;;;13.70;1.00;;;;;;6288633;28;20237;-55
2022/07/17 05:03:45;;;;;;;5.77;3.23;;;13.90;1.00;;;;;;6282617;28;20244;-55
2022/07/17 05:06:48;;;;;;;6.13;2.80;;;14.10;1.00;;;;;;6286173;28;20607;-54
2022/07/17 05:09:51;;;;;;;7.63;3.60;;;14.30;1.00;;;;;;6282152;28;20911;-53
2022/07/17 05:12:55;;;;;;;4.23;2.77;;;14.50;1.00;;;;;;6285144;28;20765;-54
2022/07/17 05:15:58;;;;;;;4.37;2.83;;;14.80;1.00;;;;;;6284060;28;20264;-55
2022/07/17 05:19:02;;;;;;;3.30;2.80;;;15.00;1.00;;;;;;6291803;28;20256;-53
2022/07/17 05:22:06;;;;;;;7.47;2.77;;;15.20;1.00;;;;;;6280898;28;20236;-53
2022/07/17 05:25:09;;;;;;;4.93;2.50;;;15.40;1.00;;;;;;6284077;28;20328;-54
2022/07/17 05:28:14;;;;;;;8.77;3.03;;;15.60;1.00;;;;;;6277175;28;20371;-54
2022/07/17 05:31:16;;;;;;;3.20;2.30;;;15.80;1.00;;;;;;6289717;28;20602;-52
2022/07/17 05:34:21;;;;;;;7.20;3.13;;;16.00;1.00;;;;;;6288995;28;20245;-53
2022/07/17 05:37:24;;;;;;;3.10;2.77;;;16.30;1.00;;;;;;6281355;28;20788;-53
2022/07/17 05:40:27;;;;;;;4.80;2.90;;;16.60;1.00;;;;;;6287465;28;20682;-54
2022/07/17 05:43:31;;;;;;;4.37;2.63;;;16.70;1.00;;;;;;6288266;28;20371;-54
2022/07/17 05:46:35;;;;;;;5.30;2.70;;;16.80;1.00;;;;;;6287623;28;20525;-55
2022/07/17 05:49:38;;;;;;;5.63;3.10;;;17.10;1.00;;;;;;6289511;28;20241;-53
2022/07/17 05:52:40;;;;;;;3.83;2.40;;;17.30;1.00;;;;;;6284830;28;20240;-55
2022/07/17 05:55:43;;;;;;;4.77;2.53;;;17.60;1.00;;;;;;6285186;28;20321;-55
2022/07/17 05:58:48;;;;;;;5.60;2.57;;;17.80;1.00;;;;;;6289545;28;20248;-52
2022/07/17 06:01:50;;;;;;;6.63;2.50;;;18.00;1.00;;;;;;6281077;28;20351;-54
2022/07/17 06:04:53;;;;;;;3.07;2.50;;;17.70;1.00;;;;;;6292729;28;20228;-52
2022/07/17 06:07:58;;;;;;;2.63;2.40;;;17.50;1.00;;;;;;6291356;28;20576;-52
2022/07/17 06:11:01;;;;;;;2.37;2.17;;;17.50;1.00;;;;;;6286836;28;20784;-53
2022/07/17 06:14:05;;;;;;;2.80;2.47;;;17.50;1.00;;;;;;6281009;28;20723;-55
2022/07/17 06:17:08;;;;;;;2.50;2.13;;;17.40;1.00;;;;;;6286891;28;20310;-53
2022/07/17 06:20:12;;;;;;;4.63;2.37;;;17.30;1.00;;;;;;6288992;28;20240;-53
2022/07/17 06:23:15;;;;;;;3.40;2.20;;;17.50;1.00;;;;;;6286003;28;20389;-53
2022/07/17 06:26:18;;;;;;;3.03;2.47;;;17.70;1.00;;;;;;6282656;28;20234;-53
2022/07/17 06:29:22;;;;;;;4.27;2.50;;;18.10;1.00;;;;;;6290081;28;21010;-55
2022/07/17 06:32:25;;;;;;;3.30;2.20;;;18.20;1.00;;;;;;6282820;28;20240;-58
2022/07/17 06:35:30;;;;;;;7.77;2.40;;;18.30;1.00;;;;;;6285289;28;20235;-55
2022/07/17 06:38:34;;;;;;;2.93;2.03;;;18.40;1.00;;;;;;6285885;28;20232;-56
2022/07/17 06:41:37;;;;;;;3.73;2.53;;;18.80;1.00;;;;;;6293479;28;20233;-53
2022/07/17 06:44:41;;;;;;;2.60;2.10;;;18.80;1.00;;;;;;6295535;28;20237;-55
2022/07/17 06:47:44;;;;;;;2.43;2.20;;;18.80;1.00;;;;;;6287963;28;20312;-55
2022/07/17 06:50:47;;;;;;;4.80;2.60;;;19.00;1.00;;;;;;6293000;28;20286;-53
2022/07/17 06:53:50;;;;;;;6.67;2.57;;;18.90;1.00;;;;;;6289031;28;20389;-55
2022/07/17 06:56:54;;;;;;;4.23;2.17;;;18.60;1.00;;;;;;6293157;28;20523;-51
2022/07/17 06:59:58;;;;;;;2.33;2.13;;;18.40;1.00;;;;;;6282923;28;20363;-50
2022/07/17 07:03:01;;;;;;;5.27;2.40;;;18.40;1.00;;;;;;6286492;28;20946;-54
2022/07/17 07:06:04;;;;;;;6.03;2.57;;;18.40;1.00;;;;;;6291433;28;20320;-55
2022/07/17 07:09:07;;;;;;;5.40;2.63;;;18.50;1.00;;;;;;6278966;28;20724;-53
2022/07/17 07:12:18;;;;;;;5.63;2.30;;;18.40;1.00;;;;;;6291313;28;20233;-53
2022/07/17 07:15:23;;;;;;;3.30;2.33;;;18.60;1.00;;;;;;6283463;28;20237;-53
2022/07/17 07:18:26;;;;;;;4.47;2.43;;;18.30;1.00;;;;;;6279687;28;20246;-54
2022/07/17 07:21:29;;;;;;;3.03;2.40;;;18.30;1.00;;;;;;6285529;28;20326;-56
2022/07/17 07:24:32;;;;;;;5.90;2.50;;;18.20;1.00;;;;;;6278634;28;20240;-56
2022/07/17 07:27:35;;;;;;;2.63;2.23;;;18.20;1.00;;;;;;6286868;28;20749;-55
2022/07/17 07:30:39;;;;;;;2.90;2.60;;;18.30;1.00;;;;;;6290751;28;20322;-54
2022/07/17 07:33:42;;;;;;;3.33;2.53;;;18.20;1.00;;;;;;6282001;28;20243;-55
2022/07/17 07:36:45;;;;;;;3.50;2.60;;;18.10;1.00;;;;;;6282894;28;20240;-54
2022/07/17 07:39:48;;;;;;;4.50;2.50;;;18.10;1.00;;;;;;6285005;28;20267;-53
2022/07/17 07:42:51;;;;;;;3.20;2.57;;;18.20;1.00;;;;;;6288799;28;20370;-53
2022/07/17 07:45:55;;;;;;;6.00;2.47;;;18.10;1.00;;;;;;6296405;28;20313;-53
2022/07/17 07:48:58;;;;;;;4.57;2.53;;;18.10;1.00;;;;;;6273766;28;20409;-51
2022/07/17 07:52:02;;;;;;;4.37;2.77;;;18.00;1.00;;;;;;6287782;28;20520;-55
2022/07/17 07:55:08;;;;;;;2.80;2.33;;;18.00;1.00;;;;;;6285448;28;20398;-54
2022/07/17 07:58:13;;;;;;;4.67;2.40;;;18.10;1.00;;;;;;6277747;28;20287;-52
2022/07/17 08:01:18;;;;;;;5.33;2.53;;;18.10;1.00;;;;;;6292445;28;20482;-54
2022/07/17 08:04:21;;;;;;;4.90;2.50;;;18.00;1.00;;;;;;6280202;28;20275;-53
2022/07/17 08:07:26;;;;;;;5.23;2.50;;;18.00;1.00;;;;;;6287419;28;20276;-53
2022/07/17 08:10:29;;;;;;;2.70;2.30;;;18.00;1.00;;;;;;6282062;28;20237;-52
2022/07/17 08:13:32;;;;;;;3.77;2.53;;;18.10;1.00;;;;;;6286868;28;20248;-55
2022/07/17 08:16:38;;;;;;;4.83;2.20;;;18.10;1.00;;;;;;6281460;28;20286;-55
2022/07/17 08:19:41;;;;;;;5.03;2.50;;;18.10;1.00;;;;;;6285711;28;20254;-54
2022/07/17 08:22:45;;;;;;;7.10;2.67;;;18.00;1.00;;;;;;6284668;28;20731;-53
2022/07/17 08:26:06;;;;;;;3.33;2.50;;;18.00;1.00;;;;;;6290816;28;20699;-54
2022/07/17 08:29:13;;;;;;;6.20;2.53;;;18.00;1.00;;;;;;6285799;28;20482;-53
2022/07/17 08:32:17;;;;;;;4.47;2.93;;;18.00;1.00;;;;;;6285411;28;20293;-54
2022/07/17 08:35:20;;;;;;;3.17;2.37;;;18.00;1.00;;;;;;6287885;28;20753;-54
2022/07/17 08:38:24;;;;;;;4.63;2.70;;;18.00;1.00;;;;;;6286866;28;20848;-55
2022/07/17 08:41:28;;;;;;;6.33;2.67;;;18.20;1.00;;;;;;6284514;28;20243;-53
2022/07/17 08:44:32;;;;;;;5.33;2.40;;;18.50;1.00;;;;;;6284169;28;20261;-54
2022/07/17 08:47:37;;;;;;;4.50;2.40;;;18.60;1.00;;;;;;6284149;28;20240;-52
2022/07/17 08:50:41;;;;;;;2.47;2.10;;;18.70;1.00;;;;;;6287392;28;20243;-53
2022/07/17 08:53:44;;;;;;;3.90;2.30;;;18.80;1.00;;;;;;6280790;28;20550;-52
2022/07/17 08:56:47;;;;;;;3.40;2.47;;;19.20;1.00;;;;;;6290669;28;20537;-55
2022/07/17 08:59:50;;;;;;;4.50;2.40;;;19.50;1.00;;;;;;6278998;28;20292;-52
2022/07/17 09:02:57;;;;;;;2.70;2.20;;;19.60;1.00;;;;;;6298951;28;20757;-53
2022/07/17 09:06:00;;;;;;;3.27;2.53;;;19.60;1.00;;;;;;6286130;28;20571;-55
2022/07/17 09:09:06;;;;;;;2.93;2.10;;;19.60;1.00;;;;;;6283268;28;20236;-53
2022/07/17 09:12:08;;;;;;;7.80;2.60;;;19.50;1.00;;;;;;6288692;28;20564;-55
2022/07/17 09:15:16;;;;;;;4.10;2.40;;;19.50;1.00;;;;;;6281612;28;20339;-55
2022/07/17 09:18:21;;;;;;;2.37;2.27;;;19.40;1.00;;;;;;6271475;28;20244;-55
2022/07/17 09:21:26;;;;;;;2.93;2.00;;;19.50;1.00;;;;;;6284945;28;20677;-54
2022/07/17 09:24:40;;;;;;;4.23;2.13;;;19.70;1.00;;;;;;6288386;28;20604;-53
2022/07/17 09:27:43;;;;;;;5.47;2.53;;;20.00;1.00;;;;;;6283973;28;20710;-53
2022/07/17 09:30:48;;;;;;;4.60;2.33;;;20.20;1.00;;;;;;6291528;28;20263;-52
2022/07/17 09:33:52;;;;;;;4.57;2.23;;;20.10;1.00;;;;;;6293118;28;20584;-53
2022/07/17 09:37:00;;;;;;;4.17;2.50;;;20.30;1.00;;;;;;6286519;28;20294;-56
2022/07/17 09:40:09;;;;;;;5.77;2.67;;;20.40;1.00;;;;;;6277101;28;20252;-54
2022/07/17 09:43:12;;;;;;;6.23;2.57;;;20.50;1.00;;;;;;6285130;28;20332;-53
2022/07/17 09:46:19;;;;;;;5.07;2.67;;;20.60;1.00;;;;;;6290531;28;20511;-55
2022/07/17 09:49:26;;;;;;;2.40;1.97;;;20.30;1.00;;;;;;6288659;28;20790;-51
2022/07/17 09:52:32;;;;;;;2.10;1.97;;;20.00;1.00;;;;;;6283830;28;20286;-56
2022/07/17 09:55:36;;;;;;;3.10;2.43;;;19.90;1.00;;;;;;6278264;28;20309;-53
2022/07/17 09:58:51;;;;;;;4.77;2.10;;;19.90;1.00;;;;;;6287369;28;20290;-54
2022/07/17 10:01:55;;;;;;;3.13;2.30;;;19.90;1.00;;;;;;6289747;28;20721;-54
2022/07/17 10:04:59;;;;;;;4.33;2.63;;;20.10;1.00;;;;;;6287401;28;20240;-55
2022/07/17 10:08:02;;;;;;;3.67;2.20;;;20.10;1.00;;;;;;6288642;28;20251;-54
2022/07/17 10:11:06;;;;;;;2.47;2.13;;;20.10;1.00;;;;;;6286331;28;20430;-53
2022/07/17 10:14:11;;;;;;;4.10;2.30;;;20.20;1.00;;;;;;6283651;28;20344;-52
2022/07/17 10:17:20;;;;;;;5.27;2.47;;;20.10;1.00;;;;;;6273438;28;20317;-54
2022/07/17 10:20:27;;;;;;;3.23;2.30;;;20.20;1.00;;;;;;6286374;28;20811;-52
2022/07/17 10:23:30;;;;;;;4.50;2.47;;;20.20;1.00;;;;;;6291924;28;20294;-53
2022/07/17 10:26:34;;;;;;;6.53;2.83;;;20.20;1.00;;;;;;6282864;28;20329;-54
2022/07/17 10:29:39;;;;;;;2.67;2.10;;;20.20;1.00;;;;;;6267038;28;20294;-55
2022/07/17 10:32:53;;;;;;;4.93;2.40;;;20.30;1.00;;;;;;6289482;28;20370;-53
2022/07/17 10:35:59;;;;;;;3.33;2.40;;;20.20;1.00;;;;;;6275872;28;20395;-55
2022/07/17 10:39:12;;;;;;;6.87;2.97;;;20.30;1.00;;;;;;6254264;28;20238;-54
2022/07/17 10:42:15;;;;;;;2.50;2.00;;;20.40;1.00;;;;;;6284796;28;20571;-55
2022/07/17 10:45:19;;;;;;;4.53;2.10;;;20.60;1.00;;;;;;6286017;28;20237;-55
2022/07/17 10:48:24;;;;;;;2.80;2.27;;;20.70;1.00;;;;;;6288009;28;20237;-53
2022/07/17 10:51:29;;;;;;;2.27;2.20;;;20.70;1.00;;;;;;6285972;28;20253;-55
2022/07/17 10:54:34;;;;;;;3.97;2.53;;;20.80;1.00;;;;;;6278025;28;20315;-54
2022/07/17 10:57:40;;;;;;;3.93;2.50;;;20.70;1.00;;;;;;6271149;28;20233;-59
2022/07/17 11:00:43;;;;;;;4.10;2.60;;;20.70;1.00;;;;;;6279822;28;20242;-55
2022/07/17 11:03:48;;;;;;;3.80;2.70;;;20.70;1.00;;;;;;6281589;28;20702;-54
2022/07/17 11:06:53;;;;;;;2.30;2.10;;;21.00;1.00;;;;;;6272530;28;20395;-55
2022/07/17 11:09:55;;;;;;;4.40;2.60;;;21.00;1.00;;;;;;6282694;28;20707;-53
2022/07/17 11:13:09;;;;;;;3.67;2.27;;;21.30;1.00;;;;;;6281961;28;20225;-53
2022/07/17 11:16:12;;;;;;;5.77;2.43;;;21.20;1.00;;;;;;6277798;28;20238;-54
2022/07/17 11:19:22;;;;;;;4.40;2.47;;;21.20;1.00;;;;;;6269861;28;20290;-54
2022/07/17 11:22:27;;;;;;;2.97;2.33;;;21.10;1.00;;;;;;6278191;28;20253;-55
2022/07/17 11:25:30;;;;;;;3.30;2.23;;;21.20;1.00;;;;;;6281520;28;20356;-54
2022/07/17 11:28:38;;;;;;;2.50;2.30;;;21.20;1.00;;;;;;6277263;28;20379;-52
2022/07/17 11:31:42;;;;;;;6.20;2.77;;;21.20;1.00;;;;;;6282052;28;20257;-53
2022/07/17 11:34:45;;;;;;;6.93;2.43;;;21.00;1.00;;;;;;6276766;28;20837;-54
2022/07/17 11:37:51;;;;;;;3.23;2.50;;;21.20;1.00;;;;;;6269017;28;20503;-56
2022/07/17 11:40:54;;;;;;;3.67;2.20;;;21.40;1.00;;;;;;6277797;28;20244;-54
2022/07/17 11:44:05;;;;;;;4.80;2.43;;;21.60;1.00;;;;;;6280222;28;20237;-53
2022/07/17 11:47:08;;;;;;;2.93;2.33;;;21.40;1.00;;;;;;6283314;28;20237;-52
2022/07/17 11:50:13;;;;;;;7.63;2.53;;;21.40;1.00;;;;;;6290567;28;20645;-53
2022/07/17 11:53:17;;;;;;;4.67;2.73;;;21.40;1.00;;;;;;6285037;28;20920;-55
2022/07/17 11:56:21;;;;;;;3.30;2.50;;;21.10;1.00;;;;;;6276347;28;20697;-52
2022/07/17 11:59:26;;;;;;;4.37;2.73;;;21.00;1.00;;;;;;6284075;28;20237;-52
2022/07/17 12:02:31;;;;;;;4.00;2.60;;;21.10;1.00;;;;;;6281696;28;20540;-53
2022/07/17 12:05:36;;;;;;;4.87;2.60;;;21.10;1.00;;;;;;6280083;28;20234;-55
2022/07/17 12:08:50;;;;;;;7.80;2.33;;;21.20;1.00;;;;;;6277808;28;20233;-51
2022/07/17 12:11:53;;;;;;;2.30;2.17;;;21.30;1.00;;;;;;6285451;28;20696;-53
2022/07/17 12:14:58;;;;;;;2.30;2.10;;;21.50;1.00;;;;;;6280740;28;20333;-56
2022/07/17 12:18:01;;;;;;;6.07;2.50;;;21.40;1.00;;;;;;6262750;28;20708;-52
2022/07/17 12:21:06;;;;;;;2.87;2.67;;;21.50;1.00;;;;;;6279170;28;20319;-52
2022/07/17 12:24:12;;;;;;;3.20;1.90;;;21.60;1.00;;;;;;6274901;28;20407;-54
2022/07/17 12:27:17;;;;;;;5.30;2.33;;;21.80;1.00;;;;;;6285674;28;20244;-54
2022/07/17 12:30:21;;;;;;;2.73;2.50;;;21.70;1.00;;;;;;6297832;28;20382;-53
2022/07/17 12:33:24;;;;;;;2.17;2.07;;;21.70;1.00;;;;;;6274264;28;20278;-56
2022/07/17 12:36:27;;;;;;;3.27;2.20;;;21.80;1.00;;;;;;6285556;28;20224;-53
2022/07/17 12:39:31;;;;;;;2.53;2.00;;;21.80;1.00;;;;;;6276592;28;20232;-55
2022/07/17 12:42:35;;;;;;;2.37;2.10;;;21.80;1.00;;;;;;6275327;28;20251;-53
2022/07/17 12:45:38;;;;;;;2.33;2.13;;;22.10;1.00;;;;;;6286029;28;20233;-53
2022/07/17 12:48:42;;;;;;;2.53;2.33;;;22.20;1.00;;;;;;6282049;28;20660;-54
2022/07/17 12:51:46;;;;;;;4.93;2.50;;;22.20;1.00;;;;;;6288154;28;20225;-52
2022/07/17 12:54:50;;;;;;;2.30;2.10;;;22.30;1.00;;;;;;6283484;28;20228;-54
2022/07/17 12:57:53;;;;;;;2.60;2.37;;;22.40;1.00;;;;;;6289980;28;20686;-53
2022/07/17 13:00:56;;;;;;;2.67;2.03;;;22.50;1.00;;;;;;6279871;28;20320;-54
2022/07/17 13:03:59;;;;;;;2.60;2.40;;;22.40;1.00;;;;;;6299942;28;20237;-52
2022/07/17 13:07:02;;;;;;;3.70;2.60;;;22.50;1.00;;;;;;6291293;28;20237;-53
2022/07/17 13:10:08;;;;;;;6.77;2.30;;;22.60;1.00;;;;;;6290163;28;20371;-53
2022/07/17 13:13:10;;;;;;;4.37;2.23;;;22.70;1.00;;;;;;6286150;28;20261;-53
2022/07/17 13:16:14;;;;;;;2.73;2.23;;;22.80;1.00;;;;;;6288001;28;20307;-52
2022/07/17 13:19:17;;;;;;;2.20;2.10;;;22.90;1.00;;;;;;6281079;28;20685;-54
2022/07/17 13:22:20;;;;;;;3.93;2.30;;;23.10;1.00;;;;;;6283963;28;20432;-53
2022/07/17 13:25:24;;;;;;;4.47;2.53;;;23.30;1.00;;;;;;6284413;28;20234;-53
2022/07/17 13:28:27;;;;;;;3.10;1.83;;;23.10;1.00;;;;;;6297546;28;20348;-54
2022/07/17 13:31:30;;;;;;;2.87;2.07;;;23.20;1.00;;;;;;6293210;28;20590;-55
2022/07/17 13:34:33;;;;;;;2.20;2.00;;;23.40;1.00;;;;;;6289379;28;20247;-56
2022/07/17 13:37:37;;;;;;;2.30;2.20;;;23.50;1.00;;;;;;6289052;28;20328;-56
2022/07/17 13:40:42;;;;;;;3.93;2.03;;;23.60;1.00;;;;;;6289868;28;21038;-53
2022/07/17 13:43:45;;;;;;;2.47;2.37;;;23.70;1.00;;;;;;6290333;28;20233;-54
2022/07/17 13:46:48;;;;;;;2.20;1.90;;;23.70;1.00;;;;;;6291418;28;20323;-54
2022/07/17 13:49:51;;;;;;;3.47;2.43;;;23.70;1.00;;;;;;6276642;28;20236;-53
2022/07/17 13:52:53;;;;;;;2.30;2.10;;;23.70;1.00;;;;;;6290570;28;20247;-53
2022/07/17 13:55:58;;;;;;;2.63;2.00;;;23.80;1.00;;;;;;6288322;28;20666;-53
2022/07/17 13:59:01;;;;;;;1.93;1.83;;;23.70;1.00;;;;;;6286428;28;20786;-53
2022/07/17 14:02:04;;;;;;;3.63;2.20;;;23.70;1.00;;;;;;6284593;28;20229;-53
2022/07/17 14:05:09;;;;;;;2.73;2.40;;;23.70;1.00;;;;;;6288410;28;20766;-54
2022/07/17 14:08:12;;;;;;;2.80;2.30;;;23.70;1.00;;;;;;6279730;28;20264;-56
2022/07/17 14:11:16;;;;;;;4.13;2.03;;;23.90;1.00;;;;;;6279647;28;20490;-56
2022/07/17 14:14:20;;;;;;;2.10;2.00;;;24.00;1.00;;;;;;6281906;28;20233;-55
2022/07/17 14:17:23;;;;;;;6.47;2.37;;;24.00;1.00;;;;;;6283493;28;20635;-54
2022/07/17 14:20:26;;;;;;;3.60;2.10;;;24.10;1.00;;;;;;6286057;28;20793;-52
2022/07/17 14:23:29;;;;;;;2.40;2.17;;;24.00;1.00;;;;;;6291470;28;20716;-55
2022/07/17 14:26:33;;;;;;;2.47;2.27;;;24.10;1.00;;;;;;6284228;28;20316;-55
2022/07/17 14:29:36;;;;;;;3.03;1.93;;;23.90;1.00;;;;;;6261709;28;20236;-52
2022/07/17 14:32:39;;;;;;;2.40;2.30;;;23.90;1.00;;;;;;6288055;28;20232;-53
2022/07/17 14:35:42;;;;;;;4.57;2.43;;;24.10;1.00;;;;;;6280860;28;20531;-50
2022/07/17 14:38:46;;;;;;;2.50;2.03;;;23.80;1.00;;;;;;6281996;28;20229;-53
2022/07/17 14:41:50;;;;;;;2.30;2.00;;;23.80;1.00;;;;;;6283782;28;20694;-55
2022/07/17 14:44:53;;;;;;;7.13;2.40;;;24.00;1.00;;;;;;6282820;28;20306;-53
2022/07/17 14:47:56;;;;;;;2.93;2.10;;;24.30;1.00;;;;;;6284744;28;20913;-55
2022/07/17 14:50:59;;;;;;;2.40;2.17;;;24.30;1.00;;;;;;6289686;28;20229;-56
2022/07/17 14:54:02;;;;;;;2.57;2.47;;;24.30;1.00;;;;;;6276509;28;20612;-52
2022/07/17 14:57:06;;;;;;;2.83;2.63;;;24.40;1.00;;;;;;6277046;28;20945;-52
2022/07/17 15:00:10;;;;;;;6.93;3.07;;;24.00;1.00;;;;;;6287306;28;20799;-52
2022/07/17 15:03:13;;;;;;;4.10;2.40;;;24.10;1.00;;;;;;6282925;28;20256;-53
2022/07/17 15:06:16;;;;;;;2.17;2.07;;;24.10;1.00;;;;;;6290934;28;20240;-54
2022/07/17 15:09:19;;;;;;;3.40;2.17;;;24.20;1.00;;;;;;6284297;28;20513;-54
2022/07/17 15:12:23;;;;;;;2.60;2.40;;;24.30;1.00;;;;;;6280014;28;20367;-55
2022/07/17 15:15:26;;;;;;;2.30;2.23;;;24.40;1.00;;;;;;6278682;28;20322;-53
2022/07/17 15:18:29;;;;;;;3.27;2.50;;;24.30;1.00;;;;;;6286976;28;20426;-53
2022/07/17 15:21:32;;;;;;;3.03;2.20;;;24.50;1.00;;;;;;6283047;28;20483;-55
2022/07/17 15:24:53;;;;;;;5.07;2.10;;;24.60;1.00;;;;;;6285519;28;20285;-55
2022/07/17 15:27:59;;;;;;;2.50;2.30;;;24.60;1.00;;;;;;6288031;28;20251;-54
2022/07/17 15:31:01;;;;;;;3.13;1.80;;;24.70;1.00;;;;;;6281471;28;20725;-56
2022/07/17 15:34:04;;;;;;;3.07;2.10;;;24.70;1.00;;;;;;6270718;28;20711;-54
2022/07/17 15:37:07;;;;;;;2.20;2.00;;;24.60;1.00;;;;;;6261908;28;20371;-53
2022/07/17 15:40:11;;;;;;;2.30;2.10;;;24.60;1.00;;;;;;6277223;28;20603;-52
2022/07/17 15:43:15;;;;;;;2.13;2.03;;;24.50;1.00;;;;;;6276128;28;20230;-53
2022/07/17 15:46:18;;;;;;;4.77;2.10;;;24.50;1.00;;;;;;6281600;28;20551;-53
2022/07/17 15:49:22;;;;;;;2.00;1.90;;;24.50;1.00;;;;;;6268239;28;20519;-55
2022/07/17 15:52:25;;;;;;;2.60;1.83;;;24.60;1.00;;;;;;6282413;28;20248;-53
2022/07/17 15:55:28;;;;;;;2.73;2.10;;;24.60;1.00;;;;;;6281356;28;20233;-54
2022/07/17 15:58:33;;;;;;;4.03;2.40;;;24.60;1.00;;;;;;6274121;28;20248;-54
2022/07/17 16:01:36;;;;;;;2.03;1.90;;;24.60;1.00;;;;;;6286017;28;20320;-52
2022/07/17 16:04:39;;;;;;;2.00;2.00;;;24.50;1.00;;;;;;6285768;28;20233;-53
2022/07/17 16:07:42;;;;;;;2.57;1.80;;;24.50;1.00;;;;;;6280846;28;20238;-54
2022/07/17 16:10:45;;;;;;;4.50;2.00;;;24.70;1.00;;;;;;6282556;28;20229;-54